sensor_id;sensor_type;location;lat;lon;timestamp;temperature;humidity
3756;DHT22;1893;52.526;13.360;2022-11-15T00:01:17;6.30;99.90
3756;DHT22;1893;52.526;13.360;2022-11-15T00:03:43;6.30;99.90
3756;DHT22;1893;52.526;13.360;2022-11-15T00:06:08;6.30;99.90
3756;DHT22;1893;52.526;13.360;2022-11-15T00:08:34;6.30;99.90
3756;DHT22;1893;52.526;13.360;2022-11-15T00:11:01;6.20;99.90
3756;DHT22;1893;52.526;13.360;2022-11-15T00:13:28;6.20;99.90
3756;DHT22;1893;52.526;13.360;2022-11-15T00:15:57;6.20;99.90
3756;DHT22;1893;52.526;13.360;2022-11-15T00:18:23;6.20;99.90
3756;DHT22;1893;52.526;13.360;2022-11-15T00:20:49;6.20;99.90
3756;DHT22;1893;52.526;13.360;2022-11-15T00:23:15;6.20;99.90
3756;DHT22;1893;52.526;13.360;2022-11-15T00:25:41;6.30;99.90
3756;DHT22;1893;52.526;13.360;2022-11-15T00:28:07;6.30;99.90
3756;DHT22;1893;52.526;13.360;2022-11-15T00:30:33;6.30;99.90
3756;DHT22;1893;52.526;13.360;2022-11-15T00:33:04;6.20;99.90
3756;DHT22;1893;52.526;13.360;2022-11-15T00:35:32;6.20;99.90
3756;DHT22;1893;52.526;13.360;2022-11-15T00:37:58;6.20;99.90
3756;DHT22;1893;52.526;13.360;2022-11-15T00:40:24;6.30;99.90
3756;DHT22;1893;52.526;13.360;2022-11-15T00:42:50;6.30;99.90
3756;DHT22;1893;52.526;13.360;2022-11-15T00:45:15;6.30;99.90
3756;DHT22;1893;52.526;13.360;2022-11-15T00:47:44;6.20;99.90
3756;DHT22;1893;52.526;13.360;2022-11-15T00:50:10;6.20;99.90
3756;DHT22;1893;52.526;13.360;2022-11-15T00:52:36;6.20;99.90
3756;DHT22;1893;52.526;13.360;2022-11-15T00:55:02;6.20;99.90
3756;DHT22;1893;52.526;13.360;2022-11-15T00:57:27;6.10;99.90
3756;DHT22;1893;52.526;13.360;2022-11-15T00:59:53;6.10;99.90
3756;DHT22;1893;52.526;13.360;2022-11-15T01:02:18;6.00;99.90
3756;DHT22;1893;52.526;13.360;2022-11-15T01:04:44;6.00;99.90
3756;DHT22;1893;52.526;13.360;2022-11-15T01:07:10;6.00;99.90
3756;DHT22;1893;52.526;13.360;2022-11-15T01:09:35;5.90;99.90
3756;DHT22;1893;52.526;13.360;2022-11-15T01:12:01;5.90;99.90
3756;DHT22;1893;52.526;13.360;2022-11-15T01:14:27;5.90;99.90
3756;DHT22;1893;52.526;13.360;2022-11-15T01:16:52;5.90;99.90
3756;DHT22;1893;52.526;13.360;2022-11-15T01:19:18;5.80;99.90
3756;DHT22;1893;52.526;13.360;2022-11-15T01:21:44;5.80;99.90
3756;DHT22;1893;52.526;13.360;2022-11-15T01:24:12;5.80;99.90
3756;DHT22;1893;52.526;13.360;2022-11-15T01:26:38;5.80;99.90
3756;DHT22;1893;52.526;13.360;2022-11-15T01:29:04;5.80;99.90
3756;DHT22;1893;52.526;13.360;2022-11-15T01:31:29;5.70;99.90
3756;DHT22;1893;52.526;13.360;2022-11-15T01:33:55;5.70;99.90
3756;DHT22;1893;52.526;13.360;2022-11-15T01:36:21;5.70;99.90
3756;DHT22;1893;52.526;13.360;2022-11-15T01:38:56;5.70;99.90
3756;DHT22;1893;52.526;13.360;2022-11-15T01:41:30;5.60;99.90
3756;DHT22;1893;52.526;13.360;2022-11-15T01:44:36;5.60;99.90
3756;DHT22;1893;52.526;13.360;2022-11-15T01:46:46;5.60;99.90
3756;DHT22;1893;52.526;13.360;2022-11-15T01:49:20;5.50;99.90
3756;DHT22;1893;52.526;13.360;2022-11-15T01:51:46;5.60;99.90
3756;DHT22;1893;52.526;13.360;2022-11-15T01:54:15;5.60;99.90
3756;DHT22;1893;52.526;13.360;2022-11-15T01:56:46;5.70;99.90
3756;DHT22;1893;52.526;13.360;2022-11-15T01:59:13;5.70;99.90
3756;DHT22;1893;52.526;13.360;2022-11-15T02:01:39;5.70;99.90
3756;DHT22;1893;52.526;13.360;2022-11-15T02:04:32;5.60;99.90
3756;DHT22;1893;52.526;13.360;2022-11-15T02:06:58;5.60;99.90
3756;DHT22;1893;52.526;13.360;2022-11-15T02:09:25;5.70;99.90
3756;DHT22;1893;52.526;13.360;2022-11-15T02:11:51;5.60;99.90
3756;DHT22;1893;52.526;13.360;2022-11-15T02:14:18;5.60;99.90
3756;DHT22;1893;52.526;13.360;2022-11-15T02:22:14;5.60;99.90
3756;DHT22;1893;52.526;13.360;2022-11-15T02:33:02;5.60;99.90
3756;DHT22;1893;52.526;13.360;2022-11-15T02:38:28;5.50;99.90
3756;DHT22;1893;52.526;13.360;2022-11-15T02:41:13;5.60;99.90
3756;DHT22;1893;52.526;13.360;2022-11-15T02:44:19;5.60;99.90
3756;DHT22;1893;52.526;13.360;2022-11-15T02:47:00;5.50;99.90
3756;DHT22;1893;52.526;13.360;2022-11-15T02:49:52;5.60;99.90
3756;DHT22;1893;52.526;13.360;2022-11-15T02:52:24;5.50;99.90
3756;DHT22;1893;52.526;13.360;2022-11-15T02:54:57;5.60;99.90
3756;DHT22;1893;52.526;13.360;2022-11-15T03:00:09;5.60;99.90
3756;DHT22;1893;52.526;13.360;2022-11-15T03:05:37;5.70;99.90
3756;DHT22;1893;52.526;13.360;2022-11-15T03:16:09;5.70;99.90
3756;DHT22;1893;52.526;13.360;2022-11-15T03:18:43;5.70;99.90
3756;DHT22;1893;52.526;13.360;2022-11-15T03:21:11;5.60;99.90
3756;DHT22;1893;52.526;13.360;2022-11-15T03:23:39;5.70;99.90
3756;DHT22;1893;52.526;13.360;2022-11-15T03:26:08;5.70;99.90
3756;DHT22;1893;52.526;13.360;2022-11-15T03:28:42;5.80;99.90
3756;DHT22;1893;52.526;13.360;2022-11-15T03:31:10;5.60;99.90
3756;DHT22;1893;52.526;13.360;2022-11-15T03:33:57;5.70;99.90
3756;DHT22;1893;52.526;13.360;2022-11-15T03:36:25;5.70;99.90
3756;DHT22;1893;52.526;13.360;2022-11-15T03:38:54;5.70;99.90
3756;DHT22;1893;52.526;13.360;2022-11-15T03:41:43;5.70;99.90
3756;DHT22;1893;52.526;13.360;2022-11-15T03:44:38;5.70;99.90
3756;DHT22;1893;52.526;13.360;2022-11-15T03:47:26;5.80;99.90
3756;DHT22;1893;52.526;13.360;2022-11-15T03:49:58;5.80;99.90
3756;DHT22;1893;52.526;13.360;2022-11-15T03:52:24;5.80;99.90
3756;DHT22;1893;52.526;13.360;2022-11-15T03:54:56;5.80;99.90
3756;DHT22;1893;52.526;13.360;2022-11-15T03:57:22;5.80;99.90
3756;DHT22;1893;52.526;13.360;2022-11-15T03:59:47;5.80;99.90
3756;DHT22;1893;52.526;13.360;2022-11-15T04:02:13;5.80;99.90
3756;DHT22;1893;52.526;13.360;2022-11-15T04:04:39;5.80;99.90
3756;DHT22;1893;52.526;13.360;2022-11-15T04:07:05;5.80;99.90
3756;DHT22;1893;52.526;13.360;2022-11-15T04:09:31;5.90;99.90
3756;DHT22;1893;52.526;13.360;2022-11-15T04:11:56;5.90;99.90
3756;DHT22;1893;52.526;13.360;2022-11-15T04:14:22;5.90;99.90
3756;DHT22;1893;52.526;13.360;2022-11-15T04:16:47;5.80;99.90
3756;DHT22;1893;52.526;13.360;2022-11-15T04:19:13;5.80;99.90
3756;DHT22;1893;52.526;13.360;2022-11-15T04:21:57;5.80;99.90
3756;DHT22;1893;52.526;13.360;2022-11-15T04:24:41;5.80;99.90
3756;DHT22;1893;52.526;13.360;2022-11-15T04:27:06;5.80;99.90
3756;DHT22;1893;52.526;13.360;2022-11-15T04:29:32;5.80;99.90
3756;DHT22;1893;52.526;13.360;2022-11-15T04:32:06;5.80;99.90
3756;DHT22;1893;52.526;13.360;2022-11-15T04:34:32;5.80;99.90
3756;DHT22;1893;52.526;13.360;2022-11-15T04:36:58;5.80;99.90
3756;DHT22;1893;52.526;13.360;2022-11-15T04:39:40;5.90;99.90
3756;DHT22;1893;52.526;13.360;2022-11-15T04:42:06;5.80;99.90
3756;DHT22;1893;52.526;13.360;2022-11-15T04:44:32;5.90;99.90
3756;DHT22;1893;52.526;13.360;2022-11-15T04:46:58;5.80;99.90
3756;DHT22;1893;52.526;13.360;2022-11-15T04:49:23;5.80;99.90
3756;DHT22;1893;52.526;13.360;2022-11-15T04:51:49;6.00;99.90
3756;DHT22;1893;52.526;13.360;2022-11-15T04:54:15;5.90;99.90
3756;DHT22;1893;52.526;13.360;2022-11-15T04:56:40;5.90;99.90
3756;DHT22;1893;52.526;13.360;2022-11-15T04:59:06;5.90;99.90
3756;DHT22;1893;52.526;13.360;2022-11-15T05:01:31;6.00;99.90
3756;DHT22;1893;52.526;13.360;2022-11-15T05:03:57;5.80;99.90
3756;DHT22;1893;52.526;13.360;2022-11-15T05:06:41;5.80;99.90
3756;DHT22;1893;52.526;13.360;2022-11-15T05:09:07;5.80;99.90
3756;DHT22;1893;52.526;13.360;2022-11-15T05:11:32;5.80;99.90
3756;DHT22;1893;52.526;13.360;2022-11-15T05:13:58;5.80;99.90
3756;DHT22;1893;52.526;13.360;2022-11-15T05:16:23;5.70;99.90
3756;DHT22;1893;52.526;13.360;2022-11-15T05:18:53;5.70;99.90
3756;DHT22;1893;52.526;13.360;2022-11-15T05:21:19;5.70;99.90
3756;DHT22;1893;52.526;13.360;2022-11-15T05:23:45;5.80;99.90
3756;DHT22;1893;52.526;13.360;2022-11-15T05:26:12;5.60;99.90
3756;DHT22;1893;52.526;13.360;2022-11-15T05:28:38;5.60;99.90
3756;DHT22;1893;52.526;13.360;2022-11-15T05:31:12;5.60;99.90
3756;DHT22;1893;52.526;13.360;2022-11-15T05:33:39;5.60;99.90
3756;DHT22;1893;52.526;13.360;2022-11-15T05:38:52;5.60;99.90
3756;DHT22;1893;52.526;13.360;2022-11-15T05:41:21;5.60;99.90
3756;DHT22;1893;52.526;13.360;2022-11-15T05:43:50;5.60;99.90
3756;DHT22;1893;52.526;13.360;2022-11-15T05:46:17;5.60;99.90
3756;DHT22;1893;52.526;13.360;2022-11-15T05:48:46;5.60;99.90
3756;DHT22;1893;52.526;13.360;2022-11-15T05:51:14;5.50;99.90
3756;DHT22;1893;52.526;13.360;2022-11-15T05:53:41;5.50;99.90
3756;DHT22;1893;52.526;13.360;2022-11-15T05:56:08;5.50;99.90
3756;DHT22;1893;52.526;13.360;2022-11-15T05:58:34;5.50;99.90
3756;DHT22;1893;52.526;13.360;2022-11-15T06:01:01;5.50;99.90
3756;DHT22;1893;52.526;13.360;2022-11-15T06:03:26;5.50;99.90
3756;DHT22;1893;52.526;13.360;2022-11-15T06:05:52;5.50;99.90
3756;DHT22;1893;52.526;13.360;2022-11-15T06:08:18;5.50;99.90
3756;DHT22;1893;52.526;13.360;2022-11-15T06:10:43;5.50;99.90
3756;DHT22;1893;52.526;13.360;2022-11-15T06:13:09;5.50;99.90
3756;DHT22;1893;52.526;13.360;2022-11-15T06:15:34;5.60;99.90
3756;DHT22;1893;52.526;13.360;2022-11-15T06:18:00;5.60;99.90
3756;DHT22;1893;52.526;13.360;2022-11-15T06:20:27;5.60;99.90
3756;DHT22;1893;52.526;13.360;2022-11-15T06:23:01;5.70;99.90
3756;DHT22;1893;52.526;13.360;2022-11-15T06:25:28;5.70;99.90
3756;DHT22;1893;52.526;13.360;2022-11-15T06:27:55;5.70;99.90
3756;DHT22;1893;52.526;13.360;2022-11-15T06:30:21;5.80;99.90
3756;DHT22;1893;52.526;13.360;2022-11-15T06:32:47;5.80;99.90
3756;DHT22;1893;52.526;13.360;2022-11-15T06:35:13;5.80;99.90
3756;DHT22;1893;52.526;13.360;2022-11-15T06:37:40;5.80;99.90
3756;DHT22;1893;52.526;13.360;2022-11-15T06:40:07;5.90;99.90
3756;DHT22;1893;52.526;13.360;2022-11-15T06:42:33;5.90;99.90
3756;DHT22;1893;52.526;13.360;2022-11-15T06:44:59;5.80;99.90
3756;DHT22;1893;52.526;13.360;2022-11-15T06:47:24;5.90;99.90
3756;DHT22;1893;52.526;13.360;2022-11-15T06:49:50;5.90;99.90
3756;DHT22;1893;52.526;13.360;2022-11-15T06:52:15;5.90;99.90
3756;DHT22;1893;52.526;13.360;2022-11-15T06:54:47;6.00;99.90
3756;DHT22;1893;52.526;13.360;2022-11-15T06:57:13;6.00;99.90
3756;DHT22;1893;52.526;13.360;2022-11-15T06:59:38;6.00;99.90
3756;DHT22;1893;52.526;13.360;2022-11-15T07:02:04;5.90;99.90
3756;DHT22;1893;52.526;13.360;2022-11-15T07:04:29;6.00;99.90
3756;DHT22;1893;52.526;13.360;2022-11-15T07:06:55;5.90;99.90
3756;DHT22;1893;52.526;13.360;2022-11-15T07:09:20;5.90;99.90
3756;DHT22;1893;52.526;13.360;2022-11-15T07:11:46;5.90;99.90
3756;DHT22;1893;52.526;13.360;2022-11-15T07:14:12;6.00;99.90
3756;DHT22;1893;52.526;13.360;2022-11-15T07:16:37;6.00;99.90
3756;DHT22;1893;52.526;13.360;2022-11-15T07:19:03;6.00;99.90
3756;DHT22;1893;52.526;13.360;2022-11-15T07:21:29;6.10;99.90
3756;DHT22;1893;52.526;13.360;2022-11-15T07:23:54;6.00;99.90
3756;DHT22;1893;52.526;13.360;2022-11-15T07:26:20;6.10;99.90
3756;DHT22;1893;52.526;13.360;2022-11-15T07:28:46;6.10;99.90
3756;DHT22;1893;52.526;13.360;2022-11-15T07:31:11;6.10;99.90
3756;DHT22;1893;52.526;13.360;2022-11-15T07:33:37;6.10;99.90
3756;DHT22;1893;52.526;13.360;2022-11-15T07:36:05;6.10;99.90
3756;DHT22;1893;52.526;13.360;2022-11-15T07:38:31;6.20;99.90
3756;DHT22;1893;52.526;13.360;2022-11-15T07:40:59;6.40;99.90
3756;DHT22;1893;52.526;13.360;2022-11-15T07:43:25;6.30;99.90
3756;DHT22;1893;52.526;13.360;2022-11-15T07:45:53;6.40;99.90
3756;DHT22;1893;52.526;13.360;2022-11-15T07:48:19;6.50;99.90
3756;DHT22;1893;52.526;13.360;2022-11-15T07:50:44;6.60;99.90
3756;DHT22;1893;52.526;13.360;2022-11-15T07:53:10;6.60;99.90
3756;DHT22;1893;52.526;13.360;2022-11-15T07:55:36;6.70;99.90
3756;DHT22;1893;52.526;13.360;2022-11-15T07:58:03;6.80;99.90
3756;DHT22;1893;52.526;13.360;2022-11-15T08:00:29;6.80;99.90
3756;DHT22;1893;52.526;13.360;2022-11-15T08:03:05;7.00;99.90
3756;DHT22;1893;52.526;13.360;2022-11-15T08:05:31;7.10;99.90
3756;DHT22;1893;52.526;13.360;2022-11-15T08:07:57;7.00;99.90
3756;DHT22;1893;52.526;13.360;2022-11-15T08:10:23;7.10;99.90
3756;DHT22;1893;52.526;13.360;2022-11-15T08:12:59;7.20;99.90
3756;DHT22;1893;52.526;13.360;2022-11-15T08:15:25;7.20;99.90
3756;DHT22;1893;52.526;13.360;2022-11-15T08:17:58;7.30;99.90
3756;DHT22;1893;52.526;13.360;2022-11-15T08:20:26;7.40;99.90
3756;DHT22;1893;52.526;13.360;2022-11-15T08:22:55;7.60;99.90
3756;DHT22;1893;52.526;13.360;2022-11-15T08:25:21;7.60;99.90
3756;DHT22;1893;52.526;13.360;2022-11-15T08:27:47;7.80;99.90
3756;DHT22;1893;52.526;13.360;2022-11-15T08:30:12;7.90;99.90
3756;DHT22;1893;52.526;13.360;2022-11-15T08:32:39;8.10;99.90
3756;DHT22;1893;52.526;13.360;2022-11-15T08:35:05;8.20;99.90
3756;DHT22;1893;52.526;13.360;2022-11-15T08:37:31;8.30;99.90
3756;DHT22;1893;52.526;13.360;2022-11-15T08:39:56;8.50;35.00
3756;DHT22;1893;52.526;13.360;2022-11-15T08:42:22;8.50;1.00
3756;DHT22;1893;52.526;13.360;2022-11-15T08:44:48;8.60;1.00
3756;DHT22;1893;52.526;13.360;2022-11-15T08:47:14;8.70;1.00
3756;DHT22;1893;52.526;13.360;2022-11-15T08:49:39;9.00;1.00
3756;DHT22;1893;52.526;13.360;2022-11-15T08:52:05;9.50;1.00
3756;DHT22;1893;52.526;13.360;2022-11-15T08:54:30;10.00;1.00
3756;DHT22;1893;52.526;13.360;2022-11-15T08:56:57;10.60;98.90
3756;DHT22;1893;52.526;13.360;2022-11-15T08:59:22;11.20;1.00
3756;DHT22;1893;52.526;13.360;2022-11-15T09:01:48;11.60;1.00
3756;DHT22;1893;52.526;13.360;2022-11-15T09:04:13;11.50;1.00
3756;DHT22;1893;52.526;13.360;2022-11-15T09:06:39;11.40;93.30
3756;DHT22;1893;52.526;13.360;2022-11-15T09:09:05;11.20;1.00
3756;DHT22;1893;52.526;13.360;2022-11-15T09:11:31;10.80;99.90
3756;DHT22;1893;52.526;13.360;2022-11-15T09:13:56;11.10;99.90
3756;DHT22;1893;52.526;13.360;2022-11-15T09:16:22;11.40;99.90
3756;DHT22;1893;52.526;13.360;2022-11-15T09:18:48;11.60;99.90
3756;DHT22;1893;52.526;13.360;2022-11-15T09:21:14;11.70;99.90
3756;DHT22;1893;52.526;13.360;2022-11-15T09:23:39;11.70;1.00
3756;DHT22;1893;52.526;13.360;2022-11-15T09:26:05;11.60;99.90
3756;DHT22;1893;52.526;13.360;2022-11-15T09:28:31;12.00;99.90
3756;DHT22;1893;52.526;13.360;2022-11-15T09:30:59;12.60;99.90
3756;DHT22;1893;52.526;13.360;2022-11-15T09:33:25;12.90;1.00
3756;DHT22;1893;52.526;13.360;2022-11-15T09:35:51;12.70;1.00
3756;DHT22;1893;52.526;13.360;2022-11-15T09:38:17;12.70;1.00
3756;DHT22;1893;52.526;13.360;2022-11-15T09:40:42;13.00;1.00
3756;DHT22;1893;52.526;13.360;2022-11-15T09:43:32;13.60;99.90
3756;DHT22;1893;52.526;13.360;2022-11-15T09:46:08;13.60;99.90
3756;DHT22;1893;52.526;13.360;2022-11-15T09:51:04;13.50;99.90
3756;DHT22;1893;52.526;13.360;2022-11-15T09:53:37;13.90;99.90
3756;DHT22;1893;52.526;13.360;2022-11-15T09:56:16;14.80;12.30
3756;DHT22;1893;52.526;13.360;2022-11-15T10:01:19;15.40;1.00
3756;DHT22;1893;52.526;13.360;2022-11-15T10:03:46;15.50;1.00
3756;DHT22;1893;52.526;13.360;2022-11-15T10:06:26;15.80;1.00
3756;DHT22;1893;52.526;13.360;2022-11-15T10:09:15;15.50;1.00
3756;DHT22;1893;52.526;13.360;2022-11-15T10:11:42;14.50;1.00
3756;DHT22;1893;52.526;13.360;2022-11-15T10:14:14;14.20;1.00
3756;DHT22;1893;52.526;13.360;2022-11-15T10:22:48;15.00;1.00
3756;DHT22;1893;52.526;13.360;2022-11-15T10:25:30;15.40;1.00
3756;DHT22;1893;52.526;13.360;2022-11-15T10:30:49;15.50;1.00
3756;DHT22;1893;52.526;13.360;2022-11-15T10:33:37;16.50;1.00
3756;DHT22;1893;52.526;13.360;2022-11-15T10:46:28;18.20;1.00
3756;DHT22;1893;52.526;13.360;2022-11-15T10:49:18;18.80;1.00
3756;DHT22;1893;52.526;13.360;2022-11-15T10:51:51;18.80;1.00
3756;DHT22;1893;52.526;13.360;2022-11-15T10:56:55;18.80;1.00
3756;DHT22;1893;52.526;13.360;2022-11-15T10:59:31;18.10;1.00
3756;DHT22;1893;52.526;13.360;2022-11-15T11:01:57;18.00;1.00
3756;DHT22;1893;52.526;13.360;2022-11-15T11:04:23;18.50;1.00
3756;DHT22;1893;52.526;13.360;2022-11-15T11:06:59;18.10;1.00
3756;DHT22;1893;52.526;13.360;2022-11-15T11:09:35;18.80;1.00
3756;DHT22;1893;52.526;13.360;2022-11-15T11:12:02;19.30;1.00
3756;DHT22;1893;52.526;13.360;2022-11-15T11:14:31;20.40;1.00
3756;DHT22;1893;52.526;13.360;2022-11-15T11:17:04;20.50;1.00
3756;DHT22;1893;52.526;13.360;2022-11-15T11:20:13;20.50;1.00
3756;DHT22;1893;52.526;13.360;2022-11-15T11:22:42;20.70;1.00
3756;DHT22;1893;52.526;13.360;2022-11-15T11:35:47;19.20;1.00
3756;DHT22;1893;52.526;13.360;2022-11-15T11:38:42;19.60;1.00
3756;DHT22;1893;52.526;13.360;2022-11-15T11:41:15;19.40;1.00
3756;DHT22;1893;52.526;13.360;2022-11-15T11:49:51;19.20;1.00
3756;DHT22;1893;52.526;13.360;2022-11-15T11:52:24;19.90;1.00
3756;DHT22;1893;52.526;13.360;2022-11-15T12:00:20;20.50;1.00
3756;DHT22;1893;52.526;13.360;2022-11-15T12:05:47;20.30;1.00
3756;DHT22;1893;52.526;13.360;2022-11-15T12:08:31;20.80;1.00
3756;DHT22;1893;52.526;13.360;2022-11-15T12:11:13;20.40;1.00
3756;DHT22;1893;52.526;13.360;2022-11-15T12:13:40;20.50;1.00
3756;DHT22;1893;52.526;13.360;2022-11-15T12:18:37;20.10;1.00
3756;DHT22;1893;52.526;13.360;2022-11-15T12:23:48;20.90;1.00
3756;DHT22;1893;52.526;13.360;2022-11-15T12:26:22;21.20;1.00
3756;DHT22;1893;52.526;13.360;2022-11-15T12:28:58;20.90;1.00
3756;DHT22;1893;52.526;13.360;2022-11-15T12:33:57;20.40;1.00
3756;DHT22;1893;52.526;13.360;2022-11-15T12:38:58;20.50;1.00
3756;DHT22;1893;52.526;13.360;2022-11-15T12:41:27;20.30;1.00
3756;DHT22;1893;52.526;13.360;2022-11-15T12:43:54;20.30;1.00
3756;DHT22;1893;52.526;13.360;2022-11-15T12:59:57;20.60;1.00
3756;DHT22;1893;52.526;13.360;2022-11-15T13:02:26;20.20;1.00
3756;DHT22;1893;52.526;13.360;2022-11-15T13:04:54;19.80;1.00
3756;DHT22;1893;52.526;13.360;2022-11-15T13:17:53;15.90;1.00
3756;DHT22;1893;52.526;13.360;2022-11-15T13:20:39;15.40;1.00
3756;DHT22;1893;52.526;13.360;2022-11-15T13:23:08;15.00;1.00
3756;DHT22;1893;52.526;13.360;2022-11-15T13:33:39;14.40;99.90
3756;DHT22;1893;52.526;13.360;2022-11-15T13:36:41;14.30;99.90
3756;DHT22;1893;52.526;13.360;2022-11-15T13:41:32;14.10;1.00
3756;DHT22;1893;52.526;13.360;2022-11-15T13:43:59;14.10;1.00
3756;DHT22;1893;52.526;13.360;2022-11-15T13:46:33;14.10;1.00
3756;DHT22;1893;52.526;13.360;2022-11-15T13:49:01;14.00;1.00
3756;DHT22;1893;52.526;13.360;2022-11-15T13:51:51;13.90;99.90
3756;DHT22;1893;52.526;13.360;2022-11-15T13:54:35;13.70;1.00
3756;DHT22;1893;52.526;13.360;2022-11-15T13:57:20;13.60;1.00
3756;DHT22;1893;52.526;13.360;2022-11-15T13:59:55;13.60;29.50
3756;DHT22;1893;52.526;13.360;2022-11-15T14:02:35;13.50;1.00
3756;DHT22;1893;52.526;13.360;2022-11-15T14:05:22;13.30;1.00
3756;DHT22;1893;52.526;13.360;2022-11-15T14:07:57;13.30;1.00
3756;DHT22;1893;52.526;13.360;2022-11-15T14:10:32;13.30;1.00
3756;DHT22;1893;52.526;13.360;2022-11-15T14:12:58;13.30;1.00
3756;DHT22;1893;52.526;13.360;2022-11-15T14:18:05;13.20;99.90
3756;DHT22;1893;52.526;13.360;2022-11-15T14:20:34;13.20;1.00
3756;DHT22;1893;52.526;13.360;2022-11-15T14:23:47;13.10;1.00
3756;DHT22;1893;52.526;13.360;2022-11-15T14:25:58;12.90;1.00
3756;DHT22;1893;52.526;13.360;2022-11-15T14:30:50;12.70;99.90
3756;DHT22;1893;52.526;13.360;2022-11-15T14:33:36;12.60;1.00
3756;DHT22;1893;52.526;13.360;2022-11-15T14:38:36;12.60;1.00
3756;DHT22;1893;52.526;13.360;2022-11-15T14:41:01;12.50;1.00
3756;DHT22;1893;52.526;13.360;2022-11-15T14:43:27;12.50;1.00
3756;DHT22;1893;52.526;13.360;2022-11-15T14:45:52;12.40;99.90
3756;DHT22;1893;52.526;13.360;2022-11-15T14:48:18;12.40;99.90
3756;DHT22;1893;52.526;13.360;2022-11-15T14:50:47;12.40;99.90
3756;DHT22;1893;52.526;13.360;2022-11-15T14:53:15;12.30;99.90
3756;DHT22;1893;52.526;13.360;2022-11-15T14:55:41;12.20;1.00
3756;DHT22;1893;52.526;13.360;2022-11-15T14:58:07;12.30;1.00
3756;DHT22;1893;52.526;13.360;2022-11-15T15:00:37;12.20;1.00
3756;DHT22;1893;52.526;13.360;2022-11-15T15:03:04;12.10;1.00
3756;DHT22;1893;52.526;13.360;2022-11-15T15:05:31;12.10;1.00
3756;DHT22;1893;52.526;13.360;2022-11-15T15:07:57;12.00;1.00
3756;DHT22;1893;52.526;13.360;2022-11-15T15:10:24;12.00;99.90
3756;DHT22;1893;52.526;13.360;2022-11-15T15:12:50;11.90;99.90
3756;DHT22;1893;52.526;13.360;2022-11-15T15:15:41;11.80;99.90
3756;DHT22;1893;52.526;13.360;2022-11-15T15:18:05;11.80;99.90
3756;DHT22;1893;52.526;13.360;2022-11-15T15:20:34;11.70;99.90
3756;DHT22;1893;52.526;13.360;2022-11-15T15:23:00;11.60;99.90
3756;DHT22;1893;52.526;13.360;2022-11-15T15:25:27;11.60;1.00
3756;DHT22;1893;52.526;13.360;2022-11-15T15:27:53;11.50;1.00
3756;DHT22;1893;52.526;13.360;2022-11-15T15:30:19;11.60;1.00
3756;DHT22;1893;52.526;13.360;2022-11-15T15:32:45;11.60;1.00
3756;DHT22;1893;52.526;13.360;2022-11-15T15:35:14;11.70;1.00
3756;DHT22;1893;52.526;13.360;2022-11-15T15:37:41;11.70;1.00
3756;DHT22;1893;52.526;13.360;2022-11-15T15:40:15;11.70;1.00
3756;DHT22;1893;52.526;13.360;2022-11-15T15:42:41;11.60;1.00
3756;DHT22;1893;52.526;13.360;2022-11-15T15:45:08;11.70;1.00
3756;DHT22;1893;52.526;13.360;2022-11-15T15:47:33;11.60;1.00
3756;DHT22;1893;52.526;13.360;2022-11-15T15:49:59;11.50;1.00
3756;DHT22;1893;52.526;13.360;2022-11-15T15:52:25;11.60;1.00
3756;DHT22;1893;52.526;13.360;2022-11-15T15:54:50;11.50;1.00
3756;DHT22;1893;52.526;13.360;2022-11-15T15:57:16;11.40;1.00
3756;DHT22;1893;52.526;13.360;2022-11-15T15:59:42;11.40;1.00
3756;DHT22;1893;52.526;13.360;2022-11-15T16:02:14;11.20;1.00
3756;DHT22;1893;52.526;13.360;2022-11-15T16:04:40;11.20;1.00
3756;DHT22;1893;52.526;13.360;2022-11-15T16:07:07;11.10;1.00
3756;DHT22;1893;52.526;13.360;2022-11-15T16:09:37;11.10;1.00
3756;DHT22;1893;52.526;13.360;2022-11-15T16:12:22;11.10;1.00
3756;DHT22;1893;52.526;13.360;2022-11-15T16:14:48;11.00;1.00
3756;DHT22;1893;52.526;13.360;2022-11-15T16:17:25;11.00;1.00
3756;DHT22;1893;52.526;13.360;2022-11-15T16:19:51;11.00;1.00
3756;DHT22;1893;52.526;13.360;2022-11-15T16:22:17;11.00;1.00
3756;DHT22;1893;52.526;13.360;2022-11-15T16:24:42;10.90;1.00
3756;DHT22;1893;52.526;13.360;2022-11-15T16:27:17;11.00;9.40
3756;DHT22;1893;52.526;13.360;2022-11-15T16:29:44;11.00;12.60
3756;DHT22;1893;52.526;13.360;2022-11-15T16:32:10;10.90;33.20
3756;DHT22;1893;52.526;13.360;2022-11-15T16:34:36;10.80;47.10
3756;DHT22;1893;52.526;13.360;2022-11-15T16:37:02;10.80;91.10
3756;DHT22;1893;52.526;13.360;2022-11-15T16:39:27;10.80;99.90
3756;DHT22;1893;52.526;13.360;2022-11-15T16:41:58;10.80;99.90
3756;DHT22;1893;52.526;13.360;2022-11-15T16:44:25;10.80;99.90
3756;DHT22;1893;52.526;13.360;2022-11-15T16:46:51;10.70;99.90
3756;DHT22;1893;52.526;13.360;2022-11-15T16:49:18;10.60;99.90
3756;DHT22;1893;52.526;13.360;2022-11-15T16:51:48;10.60;99.90
3756;DHT22;1893;52.526;13.360;2022-11-15T16:54:13;10.60;99.90
3756;DHT22;1893;52.526;13.360;2022-11-15T16:56:40;10.60;99.90
3756;DHT22;1893;52.526;13.360;2022-11-15T16:59:06;10.50;99.90
3756;DHT22;1893;52.526;13.360;2022-11-15T17:01:35;10.40;99.90
3756;DHT22;1893;52.526;13.360;2022-11-15T17:04:01;10.40;99.90
3756;DHT22;1893;52.526;13.360;2022-11-15T17:06:37;10.40;99.90
3756;DHT22;1893;52.526;13.360;2022-11-15T17:09:03;10.30;99.90
3756;DHT22;1893;52.526;13.360;2022-11-15T17:11:28;10.20;99.90
3756;DHT22;1893;52.526;13.360;2022-11-15T17:13:58;10.20;99.90
3756;DHT22;1893;52.526;13.360;2022-11-15T17:16:25;10.10;99.90
3756;DHT22;1893;52.526;13.360;2022-11-15T17:18:51;9.90;99.90
3756;DHT22;1893;52.526;13.360;2022-11-15T17:21:19;9.90;99.90
3756;DHT22;1893;52.526;13.360;2022-11-15T17:23:45;9.90;99.90
3756;DHT22;1893;52.526;13.360;2022-11-15T17:26:12;9.80;99.90
3756;DHT22;1893;52.526;13.360;2022-11-15T17:28:38;9.90;99.90
3756;DHT22;1893;52.526;13.360;2022-11-15T17:31:06;9.80;99.90
3756;DHT22;1893;52.526;13.360;2022-11-15T17:33:32;9.70;99.90
3756;DHT22;1893;52.526;13.360;2022-11-15T17:36:00;9.70;99.90
3756;DHT22;1893;52.526;13.360;2022-11-15T17:38:26;9.70;99.90
3756;DHT22;1893;52.526;13.360;2022-11-15T17:41:00;9.60;99.90
3756;DHT22;1893;52.526;13.360;2022-11-15T17:43:26;9.50;99.90
3756;DHT22;1893;52.526;13.360;2022-11-15T17:45:52;9.60;99.90
3756;DHT22;1893;52.526;13.360;2022-11-15T17:48:18;9.70;99.90
3756;DHT22;1893;52.526;13.360;2022-11-15T17:50:58;9.40;99.90
3756;DHT22;1893;52.526;13.360;2022-11-15T17:53:24;9.40;99.90
3756;DHT22;1893;52.526;13.360;2022-11-15T17:55:50;9.30;99.90
3756;DHT22;1893;52.526;13.360;2022-11-15T17:58:16;9.30;99.90
3756;DHT22;1893;52.526;13.360;2022-11-15T18:00:45;9.20;99.90
3756;DHT22;1893;52.526;13.360;2022-11-15T18:03:11;9.20;99.90
3756;DHT22;1893;52.526;13.360;2022-11-15T18:05:37;9.30;99.90
3756;DHT22;1893;52.526;13.360;2022-11-15T18:08:04;9.00;99.90
3756;DHT22;1893;52.526;13.360;2022-11-15T18:10:29;9.00;99.90
3756;DHT22;1893;52.526;13.360;2022-11-15T18:12:55;9.10;99.90
3756;DHT22;1893;52.526;13.360;2022-11-15T18:15:20;8.90;99.90
3756;DHT22;1893;52.526;13.360;2022-11-15T18:17:46;8.90;99.90
3756;DHT22;1893;52.526;13.360;2022-11-15T18:20:12;8.80;99.90
3756;DHT22;1893;52.526;13.360;2022-11-15T18:22:37;8.70;99.90
3756;DHT22;1893;52.526;13.360;2022-11-15T18:25:03;8.70;99.90
3756;DHT22;1893;52.526;13.360;2022-11-15T18:27:29;8.60;99.90
3756;DHT22;1893;52.526;13.360;2022-11-15T18:29:55;8.60;99.90